Terminal Aerodrome Forecast
Issued by NWS Detroit/Pontiac, MI

Home | Current Version | Previous Version | Text Only | Print | Product List | Glossary On
Versions: 1 2 3 4 5 6 7 8 9 10 11 12 13 14 15 16 17 18 19 20 21 22 23 24 25 26 27 28
000
FTUS43 KDTX 251120
TAFDTW
TAF
KDTW 251120Z 2512/2618 10004KT P6SM SCT030
     FM251600 13007KT P6SM SCT250
     FM260200 14007KT P6SM SCT080 BKN150
     FM260900 18009KT P6SM SCT045 BKN060 OVC120
     FM261200 23005KT 4SM SHRA OVC020
     FM261600 26008KT P6SM OVC030=

USA.gov is the U.S. government's official web portal to all federal, state and local government web resources and services.